Time;durP1;ratioP1;P1;durP2;ratioP2;P2;SDS_P1;SDS_P2;PMS_P1;PMS_P2;Temp;Humidity;BMP_temperature;BMP_pressure;BME280_temperature;BME280_humidity;BME280_pressure;Samples;Min_cycle;Max_cycle;Signal;HPM_P1;HPM_P2
2023/11/18 00:00:44;;;;;;;34.83;19.30;;;;;;;-146.25;100.00;52603.41;2056202;28;37049;-71
2023/11/18 00:01:46;;;;;;;35.17;20.85;;;;;;;-146.25;100.00;52645.97;2055813;28;34943;-72
2023/11/18 00:02:48;;;;;;;30.40;17.58;;;;;;;-146.25;100.00;52643.97;2056534;28;20907;-71
2023/11/18 00:03:52;;;;;;;29.20;19.00;;;;;;;-146.25;100.00;52603.41;2055772;28;34629;-71
2023/11/18 00:04:54;;;;;;;33.17;18.58;;;;;;;-146.25;100.00;52631.78;2055697;28;34195;-72
2023/11/18 00:05:56;;;;;;;34.15;19.55;;;;;;;-146.25;100.00;52627.75;2055528;28;34588;-72
2023/11/18 00:06:59;;;;;;;28.88;18.05;;;;;;;-146.25;100.00;52625.72;2056181;28;36727;-71
2023/11/18 00:08:01;;;;;;;35.17;18.55;;;;;;;-146.25;100.00;52570.97;2055408;28;33414;-72
2023/11/18 00:09:03;;;;;;;29.80;17.70;;;;;;;-146.25;100.00;52613.53;2056923;28;20126;-72
2023/11/18 00:10:06;;;;;;;32.17;18.30;;;;;;;-146.25;100.00;52577.03;2055656;28;35367;-70
2023/11/18 00:11:09;;;;;;;31.42;17.35;;;;;;;-146.25;100.00;52603.41;2056067;28;34499;-70
2023/11/18 00:12:10;;;;;;;30.05;18.50;;;;;;;-146.25;100.00;52615.56;2055694;28;33524;-70
2023/11/18 00:13:12;;;;;;;30.40;18.25;;;;;;;-146.25;100.00;52615.56;2063053;28;37135;-69
2023/11/18 00:14:14;;;;;;;35.60;20.27;;;;;;;-146.25;100.00;52623.69;2063314;28;32845;-70
2023/11/18 00:15:15;;;;;;;35.08;21.15;;;;;;;-146.25;100.00;52591.25;2063173;28;33470;-70
2023/11/18 00:16:17;;;;;;;32.28;19.73;;;;;;;-146.25;100.00;52619.63;2063238;28;34320;-70
2023/11/18 00:17:22;;;;;;;38.13;22.95;;;;;;;-146.25;100.00;52672.34;2056565;28;20035;-70
2023/11/18 00:18:24;;;;;;;36.63;20.08;;;;;;;-146.25;100.00;52581.09;2055434;28;38975;-70
2023/11/18 00:19:26;;;;;;;36.00;22.42;;;;;;;-146.25;100.00;52625.72;2056239;28;32825;-69
2023/11/18 00:20:32;;;;;;;38.75;22.92;;;;;;;-146.25;100.00;52633.81;2056432;28;20047;-69
2023/11/18 00:21:35;;;;;;;42.30;23.38;;;;;;;-146.25;100.00;52621.66;2055906;28;35667;-70
2023/11/18 00:22:38;;;;;;;42.30;23.80;;;;;;;-146.25;100.00;52623.69;2055843;28;32654;-70
2023/11/18 00:23:40;;;;;;;37.20;22.55;;;;;;;-146.25;100.00;52601.38;2056485;28;20843;-71
2023/11/18 00:24:44;;;;;;;42.45;23.83;;;;;;;-146.25;100.00;52619.63;2056310;28;20047;-72
2023/11/18 00:25:46;;;;;;;41.25;23.05;;;;;;;-146.25;100.00;52627.75;2055628;28;37747;-68
2023/11/18 00:26:48;;;;;;;41.72;24.33;;;;;;;-146.25;100.00;52621.66;2056470;28;21022;-69
2023/11/18 00:27:49;;;;;;;37.60;22.58;;;;;;;-146.25;100.00;52595.28;2056011;28;33824;-70
2023/11/18 00:28:51;;;;;;;39.17;22.20;;;;;;;-146.25;100.00;52639.91;2055452;28;33995;-71
2023/11/18 00:29:53;;;;;;;39.60;23.45;;;;;;;-146.25;100.00;52595.28;2055969;28;28178;-73
2023/11/18 00:30:55;;;;;;;44.38;25.00;;;;;;;-146.25;100.00;52629.75;2056074;28;30684;-70
2023/11/18 00:31:57;;;;;;;46.60;23.13;;;;;;;-146.25;100.00;52625.72;2056342;28;27619;-72
2023/11/18 00:32:59;;;;;;;46.00;24.77;;;;;;;-146.25;100.00;52593.25;2055988;28;20174;-72
2023/11/18 00:34:03;;;;;;;42.72;25.20;;;;;;;-146.25;100.00;52617.59;2063333;28;32477;-71
2023/11/18 00:35:06;;;;;;;41.65;25.33;;;;;;;-146.25;100.00;52617.59;2055308;28;21773;-72
2023/11/18 00:36:09;;;;;;;41.42;23.67;;;;;;;-146.25;100.00;52609.50;2055983;28;20098;-70
2023/11/18 00:37:10;;;;;;;45.08;23.63;;;;;;;-146.25;100.00;52623.69;2062893;28;35645;-70
2023/11/18 00:38:12;;;;;;;40.13;23.58;;;;;;;-146.25;100.00;52566.91;2055957;28;29910;-73
2023/11/18 00:39:14;;;;;;;49.13;25.48;;;;;;;-146.25;100.00;52623.69;2063385;28;20298;-73
2023/11/18 00:40:17;;;;;;;42.35;25.10;;;;;;;-146.25;100.00;52611.50;2054835;28;37250;-72
2023/11/18 00:41:19;;;;;;;40.60;23.17;;;;;;;-146.25;100.00;52609.50;2055648;28;29862;-70
2023/11/18 00:42:21;;;;;;;39.17;22.50;;;;;;;-146.25;100.00;52597.31;2055696;28;29427;-70
2023/11/18 00:43:23;;;;;;;41.90;23.73;;;;;;;-146.25;100.00;52593.25;2056524;28;20117;-71
2023/11/18 00:44:25;;;;;;;42.65;23.95;;;;;;;-146.25;100.00;52593.25;2055540;28;38762;-70
2023/11/18 00:45:28;;;;;;;36.78;23.15;;;;;;;-146.25;100.00;52607.47;2055780;28;28844;-69
2023/11/18 00:46:35;;;;;;;32.83;20.90;;;;;;;-146.25;100.00;52583.13;2056545;28;20141;-73
2023/11/18 00:47:37;;;;;;;38.65;22.75;;;;;;;-146.25;100.00;52627.75;2055882;28;26901;-73
2023/11/18 00:48:42;;;;;;;38.25;21.85;;;;;;;-146.25;100.00;52617.59;2056130;28;20050;-70
2023/11/18 00:49:45;;;;;;;39.08;22.73;;;;;;;-146.25;100.00;52650.03;2063428;28;20054;-72
2023/11/18 00:50:47;;;;;;;35.15;19.65;;;;;;;-146.25;100.00;52568.94;2062695;28;34328;-70
2023/11/18 00:51:49;;;;;;;30.15;17.90;;;;;;;-146.25;100.00;52623.69;2055628;28;20055;-71
2023/11/18 00:52:51;;;;;;;34.80;21.42;;;;;;;-146.25;100.00;52629.75;2055109;28;31319;-70
2023/11/18 00:53:54;;;;;;;38.90;23.20;;;;;;;-146.25;100.00;52605.44;2056003;28;26083;-71
2023/11/18 00:54:58;;;;;;;36.67;21.23;;;;;;;-146.25;100.00;52613.53;2056109;28;20049;-70
2023/11/18 00:56:01;;;;;;;44.33;23.65;;;;;;;-146.25;100.00;52605.44;2055713;28;31036;-71
2023/11/18 00:57:03;;;;;;;35.15;20.73;;;;;;;-146.25;100.00;52623.69;2063114;28;32974;-71
2023/11/18 00:58:07;;;;;;;39.22;22.60;;;;;;;-146.25;100.00;52603.41;2063240;28;25296;-71
2023/11/18 00:59:08;;;;;;;42.05;22.27;;;;;;;-146.25;100.00;52603.41;2055747;28;30020;-71
2023/11/18 01:00:21;;;;;;;36.30;20.83;;;;;;;-146.25;100.00;52607.47;2062701;28;29882;-72
2023/11/18 01:01:23;;;;;;;38.13;22.02;;;;;;;-146.25;100.00;52599.34;2063157;28;28325;-72
2023/11/18 01:02:27;;;;;;;38.42;22.90;;;;;;;-146.25;100.00;52627.75;2055217;28;20050;-72
2023/11/18 01:03:33;;;;;;;42.13;24.80;;;;;;;-146.25;100.00;52611.50;2055269;28;27925;-72
2023/11/18 01:04:40;;;;;;;47.13;24.25;;;;;;;-146.25;100.00;52607.47;2055879;28;29794;-71
2023/11/18 01:05:41;;;;;;;42.15;23.98;;;;;;;-146.25;100.00;52627.75;2062807;28;27500;-72
2023/11/18 01:06:43;;;;;;;40.40;23.52;;;;;;;-146.25;100.00;52595.28;2063411;28;20047;-72
2023/11/18 01:07:45;;;;;;;43.28;25.15;;;;;;;-146.25;100.00;52575.00;2055240;28;20043;-72
2023/11/18 01:08:47;;;;;;;42.80;24.90;;;;;;;-146.25;100.00;52603.41;2055489;28;21486;-74
2023/11/18 01:09:49;;;;;;;42.05;24.92;;;;;;;-146.25;100.00;52621.66;2056125;28;20040;-72
2023/11/18 01:10:51;;;;;;;45.90;26.02;;;;;;;-146.25;100.00;52595.28;2063065;28;24134;-72
2023/11/18 01:11:53;;;;;;;42.42;24.75;;;;;;;-146.25;100.00;52645.97;2062891;28;32780;-72
2023/11/18 01:13:09;;;;;;;42.03;23.63;;;;;;;-146.25;100.00;52631.78;2062236;28;20059;-73
2023/11/18 01:14:11;;;;;;;41.92;24.13;;;;;;;-146.25;100.00;52629.75;2063972;28;21657;-72
2023/11/18 01:15:14;;;;;;;39.00;24.20;;;;;;;-146.25;100.00;52589.22;2063002;28;28947;-71
2023/11/18 01:16:16;;;;;;;43.03;24.70;;;;;;;-146.25;100.00;52609.50;2055609;28;23218;-72
2023/11/18 01:17:18;;;;;;;42.05;24.52;;;;;;;-146.25;100.00;52575.00;2055926;28;20047;-72
2023/11/18 01:18:22;;;;;;;46.50;25.30;;;;;;;-146.25;100.00;52599.34;2055408;28;30906;-72
2023/11/18 01:19:24;;;;;;;44.30;24.48;;;;;;;-146.25;100.00;52607.47;2063125;28;25731;-72
2023/11/18 01:20:26;;;;;;;46.60;24.50;;;;;;;-146.25;100.00;52613.53;2062921;28;28866;-72
2023/11/18 01:21:28;;;;;;;38.15;22.98;;;;;;;-146.25;100.00;52617.59;2063670;28;20035;-71
2023/11/18 01:22:29;;;;;;;42.67;23.95;;;;;;;-146.25;100.00;52621.66;2062875;28;25839;-71
2023/11/18 01:23:31;;;;;;;46.15;23.90;;;;;;;-146.25;100.00;52615.56;2063091;28;29751;-71
2023/11/18 01:24:33;;;;;;;45.22;24.95;;;;;;;-146.25;100.00;52611.50;2055843;28;26760;-71
2023/11/18 01:25:37;;;;;;;44.35;25.02;;;;;;;-146.25;100.00;52566.91;2055418;28;29898;-73
2023/11/18 01:26:39;;;;;;;38.88;22.88;;;;;;;-146.25;100.00;52627.75;2056163;28;20861;-71
2023/11/18 01:27:41;;;;;;;44.38;23.70;;;;;;;-146.25;100.00;52595.28;2055578;28;26719;-73
2023/11/18 01:28:43;;;;;;;37.50;22.48;;;;;;;-146.25;100.00;52611.50;2062556;28;34540;-74
2023/11/18 01:29:46;;;;;;;42.47;25.08;;;;;;;-146.25;100.00;52611.50;2063304;28;20078;-73
2023/11/18 01:30:48;;;;;;;41.72;23.15;;;;;;;-146.25;100.00;52587.19;2056059;28;20055;-70
2023/11/18 01:31:50;;;;;;;39.92;23.27;;;;;;;-146.25;100.00;52619.63;2055462;28;27472;-73
2023/11/18 01:32:53;;;;;;;39.88;23.30;;;;;;;-146.25;100.00;52611.50;2055344;28;33451;-69
2023/11/18 01:33:55;;;;;;;40.92;22.58;;;;;;;-146.25;100.00;52621.66;2055909;28;20335;-73
2023/11/18 01:34:57;;;;;;;43.22;24.20;;;;;;;-146.25;100.00;52603.41;2055552;28;24188;-73
2023/11/18 01:36:03;;;;;;;41.78;23.45;;;;;;;-146.25;100.00;52639.91;2056102;28;20851;-73
2023/11/18 01:37:07;;;;;;;40.92;23.48;;;;;;;-146.25;100.00;52583.13;2056264;28;20039;-73
2023/11/18 01:38:09;;;;;;;36.22;22.98;;;;;;;-146.25;100.00;52597.31;2063092;28;25141;-72
2023/11/18 01:39:13;;;;;;;37.08;22.77;;;;;;;-146.25;100.00;52613.53;2062989;28;20042;-73
2023/11/18 01:40:15;;;;;;;34.63;21.92;;;;;;;-146.25;100.00;52591.25;2055980;28;20043;-73
2023/11/18 01:41:19;;;;;;;36.70;23.10;;;;;;;-146.25;100.00;52617.59;2061817;28;31795;-73
2023/11/18 01:42:20;;;;;;;34.08;21.88;;;;;;;-146.25;100.00;52591.25;2062706;28;25683;-73
2023/11/18 01:43:22;;;;;;;36.13;22.30;;;;;;;-146.25;100.00;52607.47;2062932;28;20062;-73
2023/11/18 01:44:28;;;;;;;36.30;23.17;;;;;;;-146.25;100.00;52603.41;2063353;28;20034;-73
2023/11/18 01:45:30;;;;;;;34.90;21.75;;;;;;;-146.25;100.00;52619.63;2062389;28;26437;-73
2023/11/18 01:46:32;;;;;;;34.08;20.60;;;;;;;-146.25;100.00;52621.66;2055460;28;20198;-73
2023/11/18 01:47:34;;;;;;;36.47;21.55;;;;;;;-146.25;100.00;52591.25;2055478;28;32338;-73
2023/11/18 01:48:41;;;;;;;34.72;20.83;;;;;;;-146.25;100.00;52637.88;2055314;28;31126;-73
2023/11/18 01:49:44;;;;;;;32.47;20.40;;;;;;;-146.25;100.00;52625.72;2062614;28;24932;-71
2023/11/18 01:50:47;;;;;;;31.17;20.20;;;;;;;-146.25;100.00;52609.50;2062804;28;31581;-73
2023/11/18 01:51:53;;;;;;;32.65;20.55;;;;;;;-146.25;100.00;52656.13;2056025;28;20757;-72
2023/11/18 01:52:55;;;;;;;29.08;19.08;;;;;;;-146.25;100.00;52591.25;2062919;28;28718;-73
2023/11/18 01:53:59;;;;;;;30.95;20.80;;;;;;;-146.25;100.00;52613.53;2062506;28;20075;-73
2023/11/18 01:55:06;;;;;;;28.98;19.85;;;;;;;-146.25;100.00;52621.66;2062720;28;28938;-73
2023/11/18 01:56:09;;;;;;;32.22;20.98;;;;;;;-146.25;100.00;52643.97;2063111;28;33182;-72
2023/11/18 01:57:11;;;;;;;36.67;21.35;;;;;;;-146.25;100.00;52607.47;2046924;28;24769;-73
2023/11/18 01:58:15;;;;;;;34.75;20.55;;;;;;;-146.25;100.00;52621.66;2047380;28;21107;-73
2023/11/18 01:59:20;;;;;;;36.22;20.63;;;;;;;-146.25;100.00;52654.09;2054877;28;20043;-73
2023/11/18 02:00:26;;;;;;;33.13;19.77;;;;;;;-146.25;100.00;52621.66;2055428;28;20051;-73
2023/11/18 02:01:28;;;;;;;32.63;20.45;;;;;;;-146.25;100.00;52599.34;2054709;28;32227;-73
2023/11/18 02:02:30;;;;;;;36.30;21.00;;;;;;;-146.25;100.00;52611.50;2055669;28;20093;-72
2023/11/18 02:03:32;;;;;;;34.35;20.55;;;;;;;-146.25;100.00;52601.38;2062712;28;20843;-72
2023/11/18 02:04:34;;;;;;;31.60;20.27;;;;;;;-146.25;100.00;52645.97;2062933;28;21078;-73
2023/11/18 02:05:36;;;;;;;32.80;20.08;;;;;;;-146.25;100.00;52615.56;2054883;28;20047;-73
2023/11/18 02:06:38;;;;;;;34.70;21.17;;;;;;;-146.25;100.00;52599.34;2054820;28;27810;-73
2023/11/18 02:07:41;;;;;;;35.15;21.73;;;;;;;-146.25;100.00;52595.28;2055169;28;20809;-73
2023/11/18 02:08:46;;;;;;;34.08;21.58;;;;;;;-146.25;100.00;52627.75;2055811;28;20039;-73
2023/11/18 02:09:49;;;;;;;34.78;21.10;;;;;;;-146.25;100.00;52611.50;2063262;28;20038;-72
2023/11/18 02:11:03;;;;;;;37.10;21.80;;;;;;;-146.25;100.00;52641.94;2063407;28;22769;-73
2023/11/18 02:12:16;;;;;;;32.25;21.08;;;;;;;-146.25;100.00;52627.75;2063506;28;20150;-73
2023/11/18 02:13:31;;;;;;;35.40;20.70;;;;;;;-146.25;100.00;52609.50;2060985;28;20035;-72
2023/11/18 02:14:33;;;;;;;36.35;21.02;;;;;;;-146.25;100.00;52568.94;2063003;28;20046;-73
2023/11/18 02:15:36;;;;;;;37.67;22.70;;;;;;;-146.25;100.00;52607.47;2062982;28;20047;-73
2023/11/18 02:16:40;;;;;;;33.67;21.48;;;;;;;-146.25;100.00;52615.56;2047006;28;20858;-71
2023/11/18 02:17:45;;;;;;;40.92;23.33;;;;;;;-146.25;100.00;52615.56;2047785;28;20122;-73
2023/11/18 02:18:49;;;;;;;42.47;23.70;;;;;;;-146.25;100.00;52583.13;2054411;28;27597;-73
2023/11/18 02:19:53;;;;;;;35.92;22.92;;;;;;;-146.25;100.00;52601.38;2046732;28;28165;-73
2023/11/18 02:20:58;;;;;;;35.38;21.35;;;;;;;-146.25;100.00;52597.31;2055578;28;20051;-73
2023/11/18 02:22:01;;;;;;;42.58;23.27;;;;;;;-146.25;100.00;52623.69;2062878;28;20791;-73
2023/11/18 02:23:04;;;;;;;39.30;22.23;;;;;;;-146.25;100.00;52609.50;2063064;28;20843;-72
2023/11/18 02:24:07;;;;;;;42.72;23.73;;;;;;;-146.25;100.00;52611.50;2055182;28;20177;-73
2023/11/18 02:25:18;;;;;;;40.45;22.67;;;;;;;-146.25;100.00;52635.84;2054419;28;31112;-72
2023/11/18 02:26:24;;;;;;;36.33;22.85;;;;;;;-146.25;100.00;52619.63;2063056;28;26336;-73
2023/11/18 02:27:27;;;;;;;42.38;24.25;;;;;;;-146.25;100.00;52631.78;2063173;28;21256;-73
2023/11/18 02:28:29;;;;;;;42.65;24.17;;;;;;;-146.25;100.00;52599.34;2062920;28;20050;-72
2023/11/18 02:29:40;;;;;;;41.25;25.90;;;;;;;-146.25;100.00;52583.13;2062643;28;29573;-73
2023/11/18 02:30:43;;;;;;;43.65;24.70;;;;;;;-146.25;100.00;52609.50;2062799;28;20051;-73
2023/11/18 02:31:50;;;;;;;43.08;24.23;;;;;;;-146.25;100.00;52583.13;2054587;28;23665;-73
2023/11/18 02:33:22;;;;;;;53.35;25.08;;;;;;;-146.25;100.00;52605.44;2055216;28;26294;-71
2023/11/18 02:34:30;;;;;;;40.72;22.38;;;;;;;-146.25;100.00;52607.47;2089056;22;21803;-76
2023/11/18 02:36:05;;;;;;;42.72;24.27;;;;;;;-146.25;100.00;52611.50;2066366;28;24782;-75
2023/11/18 02:37:08;;;;;;;46.30;24.63;;;;;;;-146.25;100.00;52603.41;2076153;28;20180;-76
2023/11/18 02:38:12;;;;;;;47.83;25.23;;;;;;;-146.25;100.00;52645.97;2071195;28;20958;-76
2023/11/18 02:39:30;;;;;;;45.35;25.70;;;;;;;-146.25;100.00;52603.41;2073000;28;20182;-74
2023/11/18 02:40:36;;;;;;;44.72;23.63;;;;;;;-146.25;100.00;52595.28;2080245;28;26256;-76
2023/11/18 02:41:41;;;;;;;42.55;21.85;;;;;;;-146.25;100.00;52615.56;2080027;28;35096;-76
2023/11/18 02:42:45;;;;;;;47.05;24.88;;;;;;;-146.25;100.00;52607.47;2070885;28;24728;-76
2023/11/18 02:43:47;;;;;;;45.55;25.67;;;;;;;-146.25;100.00;52611.50;2072137;28;29744;-75
2023/11/18 02:44:58;;;;;;;48.90;26.45;;;;;;;-146.25;100.00;52643.97;2071099;28;25985;-73
2023/11/18 02:46:06;;;;;;;45.15;23.40;;;;;;;-146.25;100.00;52603.41;2072870;28;30721;-76
2023/11/18 02:47:09;;;;;;;44.50;24.52;;;;;;;-146.25;100.00;52631.78;2080251;28;20830;-76
2023/11/18 02:48:11;;;;;;;41.90;22.95;;;;;;;-146.25;100.00;52607.47;2064085;28;20170;-77
2023/11/18 02:49:13;;;;;;;48.25;25.38;;;;;;;-146.25;100.00;52605.44;2071047;28;24893;-76
2023/11/18 02:50:19;;;;;;;41.45;23.27;;;;;;;-146.25;100.00;52593.25;2079524;28;20053;-75
2023/11/18 02:51:22;;;;;;;48.58;26.08;;;;;;;-146.25;100.00;52641.94;2071084;28;20038;-78
2023/11/18 02:52:24;;;;;;;42.30;23.10;;;;;;;-146.25;100.00;52611.50;2072016;28;20069;-77
2023/11/18 02:53:28;;;;;;;42.90;24.00;;;;;;;-146.25;100.00;52607.47;2079373;28;28297;-75
2023/11/18 02:54:30;;;;;;;48.50;25.20;;;;;;;-146.25;100.00;52627.75;2080232;28;33798;-75
2023/11/18 02:55:33;;;;;;;53.15;25.52;;;;;;;-146.25;100.00;52599.34;2072446;28;20834;-75
2023/11/18 02:56:36;;;;;;;46.15;26.27;;;;;;;-146.25;100.00;52623.69;2072516;28;20049;-75
2023/11/18 02:57:38;;;;;;;39.75;21.80;;;;;;;-146.25;100.00;52603.41;2080348;28;25418;-75
2023/11/18 02:58:40;;;;;;;47.22;26.13;;;;;;;-146.25;100.00;52625.72;2073622;28;20073;-76
2023/11/18 02:59:42;;;;;;;46.88;25.88;;;;;;;-146.25;100.00;52631.78;2080179;28;30837;-76
2023/11/18 03:00:44;;;;;;;49.03;26.02;;;;;;;-146.25;100.00;52623.69;2080023;28;33753;-75
2023/11/18 03:01:46;;;;;;;44.05;24.75;;;;;;;-146.25;100.00;52609.50;2080557;28;30700;-76
2023/11/18 03:02:53;;;;;;;46.28;23.02;;;;;;;-146.25;100.00;52583.13;2073097;28;33963;-74
2023/11/18 03:03:55;;;;;;;45.83;25.83;;;;;;;-146.25;100.00;52631.78;2081164;28;20136;-75
2023/11/18 03:05:00;;;;;;;48.70;25.77;;;;;;;-146.25;100.00;52587.19;2081758;28;20042;-74
2023/11/18 03:06:02;;;;;;;51.42;27.35;;;;;;;-146.25;100.00;52591.25;2073861;28;28697;-75
2023/11/18 03:07:03;;;;;;;56.08;27.52;;;;;;;-146.25;100.00;52611.50;2072309;28;26113;-75
2023/11/18 03:08:08;;;;;;;56.97;28.67;;;;;;;-146.25;100.00;52611.50;2079944;28;31801;-75
2023/11/18 03:09:10;;;;;;;56.42;28.48;;;;;;;-146.25;100.00;52583.13;2072741;28;20966;-76
2023/11/18 03:10:20;;;;;;;45.50;24.88;;;;;;;-146.25;100.00;52635.84;2072521;28;24165;-76
2023/11/18 03:11:22;;;;;;;62.42;30.77;;;;;;;-146.25;100.00;52631.78;2073118;28;20976;-74
2023/11/18 03:12:27;;;;;;;49.38;27.55;;;;;;;-146.25;100.00;52645.97;2073370;28;23312;-75
2023/11/18 03:13:29;;;;;;;63.17;30.23;;;;;;;-146.25;100.00;52666.25;2073157;28;20148;-76
2023/11/18 03:14:32;;;;;;;57.95;29.27;;;;;;;-146.25;100.00;52587.19;2073360;28;20251;-76
2023/11/18 03:15:34;;;;;;;55.78;28.60;;;;;;;-146.25;100.00;52625.72;2072858;28;20112;-75
2023/11/18 03:16:38;;;;;;;60.10;28.60;;;;;;;-146.25;100.00;52627.75;2073353;28;20112;-76
2023/11/18 03:17:40;;;;;;;60.42;30.08;;;;;;;-146.25;100.00;52615.56;2076695;28;23655;-75
2023/11/18 03:18:43;;;;;;;61.67;30.02;;;;;;;-146.25;100.00;52577.03;2071645;28;22732;-76
2023/11/18 03:19:45;;;;;;;56.17;27.20;;;;;;;-146.25;100.00;52609.50;2080947;28;20050;-74
2023/11/18 03:20:48;;;;;;;71.50;33.28;;;;;;;-146.25;100.00;52627.75;2072710;28;24607;-76
2023/11/18 03:21:53;;;;;;;77.88;34.13;;;;;;;-146.25;100.00;52587.19;2072948;28;20726;-76
2023/11/18 03:22:54;;;;;;;86.15;34.88;;;;;;;-146.25;100.00;52613.53;2080878;28;20205;-75
2023/11/18 03:24:09;;;;;;;94.45;34.83;;;;;;;-146.25;100.00;52625.72;2082163;28;31614;-75
2023/11/18 03:25:16;;;;;;;72.97;31.10;;;;;;;-146.25;100.00;52601.38;2081428;28;20057;-75
2023/11/18 03:26:19;;;;;;;103.55;32.50;;;;;;;-146.25;100.00;52583.13;2071740;28;20146;-76
2023/11/18 03:27:22;;;;;;;92.85;32.65;;;;;;;-146.25;100.00;52633.81;2064413;28;26183;-75
2023/11/18 03:28:26;;;;;;;76.18;33.45;;;;;;;-146.25;100.00;52613.53;2072532;28;20042;-75
2023/11/18 03:29:29;;;;;;;96.47;36.97;;;;;;;-146.25;100.00;52587.19;2072060;28;21115;-72
2023/11/18 03:30:30;;;;;;;116.40;36.00;;;;;;;-146.25;100.00;52601.38;2071728;28;37803;-74
2023/11/18 03:31:33;;;;;;;85.45;34.45;;;;;;;-146.25;100.00;52607.47;2071730;28;26587;-75
2023/11/18 03:32:36;;;;;;;127.07;37.15;;;;;;;-146.25;100.00;52591.25;2079958;28;25366;-74
2023/11/18 03:33:40;;;;;;;89.32;36.40;;;;;;;-146.25;100.00;52611.50;2064043;28;20074;-75
2023/11/18 03:34:44;;;;;;;110.43;35.97;;;;;;;-146.25;100.00;52599.34;2064221;28;21023;-76
2023/11/18 03:35:46;;;;;;;107.15;37.63;;;;;;;-146.25;100.00;52575.00;2072035;28;20042;-74
2023/11/18 03:36:47;;;;;;;114.05;38.22;;;;;;;-146.25;100.00;52643.97;2071710;28;32978;-77
2023/11/18 03:37:51;;;;;;;87.97;36.47;;;;;;;-146.25;100.00;52607.47;2080091;28;27795;-74
2023/11/18 03:38:52;;;;;;;79.43;33.70;;;;;;;-146.25;100.00;52613.53;2071483;28;26815;-76
2023/11/18 03:39:54;;;;;;;87.85;35.78;;;;;;;-146.25;100.00;52621.66;2072135;28;26089;-76
2023/11/18 03:40:58;;;;;;;89.20;37.15;;;;;;;-146.25;100.00;52623.69;2072232;28;22857;-74
2023/11/18 03:42:00;;;;;;;99.57;36.83;;;;;;;-146.25;100.00;52587.19;2072149;28;27708;-76
2023/11/18 03:43:03;;;;;;;77.68;34.58;;;;;;;-146.25;100.00;52615.56;2072884;28;20035;-76
2023/11/18 03:44:04;;;;;;;89.32;35.35;;;;;;;-146.25;100.00;52599.34;2072262;28;32697;-74
2023/11/18 03:45:11;;;;;;;85.47;36.78;;;;;;;-146.25;100.00;52603.41;2072016;28;20145;-76
2023/11/18 03:46:13;;;;;;;77.93;33.85;;;;;;;-146.25;100.00;52615.56;2072761;28;23058;-73
2023/11/18 03:47:15;;;;;;;121.03;37.08;;;;;;;-146.25;100.00;52609.50;2080122;28;20045;-76
2023/11/18 03:48:19;;;;;;;82.05;33.75;;;;;;;-146.25;100.00;52607.47;2080170;28;20878;-76
2023/11/18 03:49:21;;;;;;;99.15;38.42;;;;;;;-146.25;100.00;52611.50;2072037;28;20112;-76
2023/11/18 03:50:24;;;;;;;128.27;37.25;;;;;;;-146.25;100.00;52593.25;2072871;28;20188;-74
2023/11/18 03:51:28;;;;;;;108.07;38.35;;;;;;;-146.25;100.00;52623.69;2072823;28;21420;-76
2023/11/18 03:52:30;;;;;;;152.38;35.47;;;;;;;-146.25;100.00;52603.41;2079855;28;27804;-74
2023/11/18 03:53:34;;;;;;;142.95;38.17;;;;;;;-146.25;100.00;52603.41;2080486;28;24805;-76
2023/11/18 03:54:36;;;;;;;194.88;38.00;;;;;;;-146.25;100.00;52591.25;2072085;28;20078;-75
2023/11/18 03:55:38;;;;;;;200.77;38.38;;;;;;;-146.25;100.00;52633.81;2071285;28;30547;-75
2023/11/18 03:56:39;;;;;;;116.95;35.63;;;;;;;-146.25;100.00;52623.69;2064323;28;20031;-75
2023/11/18 03:57:41;;;;;;;139.70;36.40;;;;;;;-146.25;100.00;52621.66;2063562;28;33469;-77
2023/11/18 03:58:47;;;;;;;144.45;38.50;;;;;;;-146.25;100.00;52607.47;2072394;28;32876;-73
2023/11/18 03:59:48;;;;;;;165.48;36.40;;;;;;;-146.25;100.00;52631.78;2079457;28;37403;-76
2023/11/18 04:00:50;;;;;;;188.73;35.80;;;;;;;-146.25;100.00;52629.75;2080446;28;20133;-76
2023/11/18 04:01:52;;;;;;;116.07;35.53;;;;;;;-146.25;100.00;52579.06;2072844;28;20042;-77
2023/11/18 04:02:59;;;;;;;132.75;35.78;;;;;;;-146.25;100.00;52607.47;2072282;28;20038;-73
2023/11/18 04:04:02;;;;;;;109.03;35.55;;;;;;;-146.25;100.00;52597.31;2071553;28;21503;-76
2023/11/18 04:05:08;;;;;;;100.70;37.20;;;;;;;-146.25;100.00;52648.00;2071825;28;20736;-76
2023/11/18 04:06:13;;;;;;;169.05;38.03;;;;;;;-146.25;100.00;52629.75;2072649;28;20470;-74
2023/11/18 04:07:16;;;;;;;130.73;35.58;;;;;;;-146.25;100.00;52641.94;2072312;28;20038;-75
2023/11/18 04:08:18;;;;;;;171.02;35.38;;;;;;;-146.25;100.00;52595.28;2064143;28;28007;-76
2023/11/18 04:09:20;;;;;;;166.38;38.60;;;;;;;-146.25;100.00;52605.44;2071772;28;26407;-75
2023/11/18 04:10:22;;;;;;;121.55;37.22;;;;;;;-146.25;100.00;52631.78;2071952;28;31549;-76
2023/11/18 04:11:26;;;;;;;160.40;37.90;;;;;;;-146.25;100.00;52583.13;2072370;28;20042;-75
2023/11/18 04:12:30;;;;;;;205.43;42.72;;;;;;;-146.25;100.00;52619.63;2072242;28;21033;-72
2023/11/18 04:13:32;;;;;;;192.43;39.75;;;;;;;-146.25;100.00;52619.63;2064228;28;20039;-76
2023/11/18 04:14:34;;;;;;;186.80;39.03;;;;;;;-146.25;100.00;52597.31;2064290;28;26870;-77
2023/11/18 04:15:35;;;;;;;178.32;38.47;;;;;;;-146.25;100.00;52591.25;2079668;28;31520;-74
2023/11/18 04:16:40;;;;;;;172.60;40.38;;;;;;;-146.25;100.00;52599.34;2071999;28;20038;-75
2023/11/18 04:17:44;;;;;;;109.07;38.15;;;;;;;-146.25;100.00;52623.69;2071455;28;26101;-75
2023/11/18 04:18:46;;;;;;;135.77;36.83;;;;;;;-146.25;100.00;52609.50;2079740;28;28095;-76
2023/11/18 04:19:48;;;;;;;188.73;38.47;;;;;;;-146.25;100.00;52615.56;2079791;28;20065;-73
2023/11/18 04:20:50;;;;;;;188.70;37.13;;;;;;;-146.25;100.00;52631.78;2072274;28;26938;-74
2023/11/18 04:21:53;;;;;;;134.48;41.78;;;;;;;-146.25;100.00;52621.66;2072330;28;22750;-75
2023/11/18 04:22:54;;;;;;;141.40;40.70;;;;;;;-146.25;100.00;52635.84;2072428;28;26407;-76
2023/11/18 04:23:58;;;;;;;262.80;41.33;;;;;;;-146.25;100.00;52607.47;2072527;28;27930;-74
2023/11/18 04:25:00;;;;;;;178.35;37.63;;;;;;;-146.25;100.00;52615.56;2072300;28;24031;-75
2023/11/18 04:26:04;;;;;;;197.15;38.88;;;;;;;-146.25;100.00;52623.69;2070874;28;24437;-75
2023/11/18 04:27:06;;;;;;;143.02;35.30;;;;;;;-146.25;100.00;52603.41;2072136;28;20093;-75
2023/11/18 04:28:07;;;;;;;233.40;39.78;;;;;;;-146.25;100.00;52615.56;2080301;28;26727;-74
2023/11/18 04:29:10;;;;;;;300.55;41.50;;;;;;;-146.25;100.00;52593.25;2072034;28;20057;-76
2023/11/18 04:30:12;;;;;;;217.98;41.65;;;;;;;-146.25;100.00;52627.75;2071632;28;24543;-75
2023/11/18 04:31:14;;;;;;;245.93;41.75;;;;;;;-146.25;100.00;52611.50;2072031;28;36629;-76
2023/11/18 04:32:16;;;;;;;232.68;41.17;;;;;;;-146.25;100.00;52575.00;2072819;28;20050;-76
2023/11/18 04:33:26;;;;;;;303.02;42.90;;;;;;;-146.25;100.00;52597.31;2072377;28;20161;-75
2023/11/18 04:34:28;;;;;;;178.88;38.08;;;;;;;-146.25;100.00;52625.72;2072399;28;26502;-74
2023/11/18 04:35:30;;;;;;;191.30;41.67;;;;;;;-146.25;100.00;52609.50;2072480;28;25169;-74
2023/11/18 04:36:32;;;;;;;200.82;39.65;;;;;;;-146.25;100.00;52629.75;2071627;28;27113;-74
2023/11/18 04:37:38;;;;;;;288.70;40.13;;;;;;;-146.25;100.00;52639.91;2072312;28;20090;-76
2023/11/18 04:38:39;;;;;;;170.40;41.67;;;;;;;-146.25;100.00;52650.03;2072592;28;24295;-75
2023/11/18 04:39:41;;;;;;;174.43;40.17;;;;;;;-146.25;100.00;52621.66;2071643;28;28877;-77
2023/11/18 04:40:45;;;;;;;268.60;43.42;;;;;;;-146.25;100.00;52631.78;2071524;28;21056;-75
2023/11/18 04:41:52;;;;;;;309.98;45.58;;;;;;;-146.25;100.00;52652.06;2079480;28;26038;-75